createdAt,value
2022-08-04T00:00:46.337Z,11
2022-08-04T00:01:38.158Z,11
2022-08-04T00:02:30.040Z,10
2022-08-04T00:03:21.893Z,12
2022-08-04T00:04:13.733Z,12
2022-08-04T00:05:05.739Z,10
2022-08-04T00:05:57.453Z,11
2022-08-04T00:06:49.309Z,11
2022-08-04T00:07:44.135Z,11
2022-08-04T00:08:33.033Z,11
2022-08-04T00:09:24.857Z,12
2022-08-04T00:10:16.683Z,13
2022-08-04T00:11:08.516Z,12
2022-08-04T00:12:00.430Z,13
2022-08-04T00:12:52.255Z,12
2022-08-04T00:13:58.077Z,11
2022-08-04T00:14:35.971Z,12
2022-08-04T00:15:27.853Z,13
2022-08-04T00:16:19.706Z,11
2022-08-04T00:17:11.423Z,12
2022-08-04T00:18:03.382Z,12
2022-08-04T00:18:55.248Z,12
2022-08-04T00:19:47.080Z,12
2022-08-04T00:20:38.895Z,10
2022-08-04T00:21:30.758Z,11
2022-08-04T00:22:22.606Z,12
2022-08-04T00:23:14.448Z,13
2022-08-04T00:24:11.789Z,11
2022-08-04T00:24:58.072Z,11
2022-08-04T00:25:50.005Z,11
2022-08-04T00:26:41.831Z,13
2022-08-04T00:27:34.131Z,11
2022-08-04T00:28:25.537Z,12
2022-08-04T00:29:17.391Z,11
2022-08-04T00:30:09.253Z,10
2022-08-04T00:31:01.100Z,11
2022-08-04T00:31:56.650Z,10
2022-08-04T00:32:44.780Z,12
2022-08-04T00:33:36.629Z,12
2022-08-04T00:34:28.486Z,11
2022-08-04T00:35:20.323Z,11
2022-08-04T00:36:12.196Z,11
2022-08-04T00:37:04.006Z,12
2022-08-04T00:37:55.872Z,11
2022-08-04T00:38:47.712Z,11
2022-08-04T00:39:39.651Z,11
2022-08-04T00:40:31.414Z,10
2022-08-04T00:41:23.272Z,11
2022-08-04T00:42:15.106Z,9
2022-08-04T00:43:06.978Z,10
2022-08-04T00:43:58.775Z,9
2022-08-04T00:44:50.654Z,10
2022-08-04T00:46:10.913Z,11
2022-08-04T00:46:34.357Z,10
2022-08-04T00:47:26.209Z,11
2022-08-04T00:48:18.045Z,10
2022-08-04T00:49:09.906Z,9
2022-08-04T00:50:01.748Z,12
2022-08-04T00:50:53.589Z,11
2022-08-04T00:51:45.470Z,10
2022-08-04T00:52:37.292Z,10
2022-08-04T00:53:29.171Z,9
2022-08-04T00:54:21.010Z,10
2022-08-04T00:55:12.870Z,11
2022-08-04T00:56:04.703Z,10
2022-08-04T00:56:56.545Z,10
2022-08-04T00:57:48.325Z,12
2022-08-04T00:58:40.292Z,10
2022-08-04T00:59:32.094Z,10
2022-08-04T01:00:23.941Z,10
2022-08-04T01:01:15.828Z,10
2022-08-04T01:02:07.624Z,9
2022-08-04T01:02:59.461Z,11
2022-08-04T01:03:51.318Z,10
2022-08-04T01:04:43.156Z,12
2022-08-04T01:05:37.956Z,11
2022-08-04T01:06:26.853Z,12
2022-08-04T01:07:18.848Z,10
2022-08-04T01:08:10.556Z,9
2022-08-04T01:09:02.415Z,9
2022-08-04T01:09:54.225Z,8
2022-08-04T01:10:46.092Z,10
2022-08-04T01:11:57.521Z,11
2022-08-04T01:12:29.790Z,10
2022-08-04T01:13:21.630Z,9
2022-08-04T01:14:13.501Z,10
2022-08-04T01:15:05.320Z,9
2022-08-04T01:16:00.482Z,12
2022-08-04T01:16:48.966Z,12
2022-08-04T01:17:40.867Z,10
2022-08-04T01:18:32.720Z,12
2022-08-04T01:19:24.560Z,10
2022-08-04T01:20:16.397Z,11
2022-08-04T01:21:08.180Z,11
2022-08-04T01:22:00.101Z,12
2022-08-04T01:22:51.958Z,9
2022-08-04T01:23:43.796Z,9
2022-08-04T01:24:35.675Z,9
2022-08-04T01:25:27.500Z,9
2022-08-04T01:26:43.895Z,9
2022-08-04T01:27:11.215Z,10
2022-08-04T01:28:03.061Z,10
2022-08-04T01:28:54.893Z,11
2022-08-04T01:29:48.683Z,10
2022-08-04T01:30:38.550Z,9
2022-08-04T01:31:30.468Z,10
2022-08-04T01:32:25.757Z,10
2022-08-04T01:33:14.167Z,10
2022-08-04T01:34:05.989Z,9
2022-08-04T01:34:57.867Z,10
2022-08-04T01:35:49.716Z,11
2022-08-04T01:36:41.566Z,11
2022-08-04T01:37:33.410Z,9
2022-08-04T01:38:25.262Z,10
2022-08-04T01:39:17.144Z,10
2022-08-04T01:40:08.969Z,9
2022-08-04T01:41:00.793Z,9
2022-08-04T01:41:57.779Z,9
2022-08-04T01:42:44.500Z,9
2022-08-04T01:43:36.365Z,10
2022-08-04T01:44:28.173Z,10
2022-08-04T01:45:20.078Z,9
2022-08-04T01:46:11.904Z,11
2022-08-04T01:47:03.789Z,9
2022-08-04T01:47:55.614Z,9
2022-08-04T01:48:47.496Z,11
2022-08-04T01:49:40.008Z,10
2022-08-04T01:50:31.193Z,10
2022-08-04T01:51:23.031Z,11
2022-08-04T01:52:14.901Z,11
2022-08-04T01:53:06.740Z,10
2022-08-04T01:53:58.534Z,9
2022-08-04T01:54:50.457Z,11
2022-08-04T01:55:52.097Z,10
2022-08-04T01:56:34.147Z,9
2022-08-04T01:57:36.926Z,9
2022-08-04T01:58:17.878Z,9
2022-08-04T01:59:09.747Z,10
2022-08-04T02:00:01.586Z,9
2022-08-04T02:00:56.480Z,9
2022-08-04T02:01:45.426Z,10
2022-08-04T02:02:37.220Z,9
2022-08-04T02:04:20.873Z,11
2022-08-04T02:04:23.349Z,11
2022-08-04T02:05:12.668Z,11
2022-08-04T02:06:04.542Z,10
2022-08-04T02:06:56.383Z,10
2022-08-04T02:07:48.204Z,11
2022-08-04T02:08:40.074Z,9
2022-08-04T02:09:31.956Z,9
2022-08-04T02:10:23.792Z,10
2022-08-04T02:11:15.670Z,10
2022-08-04T02:12:16.311Z,11
2022-08-04T02:12:59.393Z,10
2022-08-04T02:13:51.266Z,11
2022-08-04T02:14:43.128Z,9
2022-08-04T02:15:34.991Z,9
2022-08-04T02:16:26.850Z,11
2022-08-04T02:17:18.889Z,10
2022-08-04T02:18:10.588Z,10
2022-08-04T02:19:02.481Z,10
2022-08-04T02:19:54.333Z,10
2022-08-04T02:20:46.216Z,9
2022-08-04T02:21:42.389Z,11
2022-08-04T02:22:29.942Z,9
2022-08-04T02:23:21.812Z,12
2022-08-04T02:24:13.657Z,11
2022-08-04T02:25:05.544Z,9
2022-08-04T02:25:57.398Z,9
2022-08-04T02:26:49.291Z,10
2022-08-04T02:28:00.044Z,9
2022-08-04T02:28:33.162Z,9
2022-08-04T02:29:28.171Z,11
2022-08-04T02:30:18.461Z,11
2022-08-04T02:31:08.526Z,10
2022-08-04T02:32:00.528Z,10
2022-08-04T02:32:52.363Z,10
2022-08-04T02:33:44.260Z,10
2022-08-04T02:34:36.110Z,10
2022-08-04T02:35:28.020Z,10
2022-08-04T02:36:19.918Z,9
2022-08-04T02:37:11.831Z,9
2022-08-04T02:38:03.610Z,10
2022-08-04T02:38:55.536Z,10
2022-08-04T02:39:48.303Z,9
2022-08-04T02:40:39.236Z,9
2022-08-04T02:41:31.100Z,10
2022-08-04T02:42:22.971Z,9
2022-08-04T02:43:14.845Z,9
2022-08-04T02:44:06.717Z,9
2022-08-04T02:44:58.555Z,10
2022-08-04T02:45:50.476Z,9
2022-08-04T02:46:42.333Z,8
2022-08-04T02:48:30.735Z,8
2022-08-04T02:48:30.933Z,10
2022-08-04T02:49:17.971Z,9
2022-08-04T02:50:09.843Z,10
2022-08-04T02:51:01.723Z,9
2022-08-04T02:51:53.575Z,9
2022-08-04T02:52:45.468Z,10
2022-08-04T02:53:37.334Z,10
2022-08-04T02:54:33.619Z,9
2022-08-04T02:55:21.085Z,9
2022-08-04T02:56:12.986Z,10
2022-08-04T02:57:08.359Z,9
2022-08-04T02:57:56.735Z,9
2022-08-04T02:58:48.595Z,9
2022-08-04T02:59:40.484Z,10
2022-08-04T03:00:32.356Z,9
2022-08-04T03:01:24.377Z,11
2022-08-04T03:02:16.089Z,9
2022-08-04T03:03:07.986Z,10
2022-08-04T03:03:59.842Z,10
2022-08-04T03:04:51.745Z,9
2022-08-04T03:05:50.039Z,9
2022-08-04T03:06:35.484Z,9
2022-08-04T03:07:27.353Z,10
2022-08-04T03:08:19.248Z,12
2022-08-04T03:09:11.108Z,10
2022-08-04T03:10:02.932Z,10
2022-08-04T03:10:54.866Z,10
2022-08-04T03:11:46.747Z,10
2022-08-04T03:12:38.550Z,11
2022-08-04T03:13:30.499Z,9
2022-08-04T03:14:22.373Z,9
2022-08-04T03:15:14.265Z,9
2022-08-04T03:16:06.115Z,10
2022-08-04T03:16:58.012Z,10
2022-08-04T03:17:52.485Z,10
2022-08-04T03:18:41.770Z,10
2022-08-04T03:19:33.634Z,10
2022-08-04T03:20:25.529Z,10
2022-08-04T03:21:17.399Z,11
2022-08-04T03:22:09.269Z,12
2022-08-04T03:23:12.915Z,10
2022-08-04T03:23:53.037Z,10
2022-08-04T03:24:44.901Z,11
2022-08-04T03:25:36.781Z,9
2022-08-04T03:26:28.589Z,9
2022-08-04T03:27:20.867Z,10
2022-08-04T03:28:12.287Z,10
2022-08-04T03:29:04.295Z,10
2022-08-04T03:29:56.127Z,11
2022-08-04T03:30:48.025Z,11
2022-08-04T03:31:39.888Z,11
2022-08-04T03:32:31.773Z,12
2022-08-04T03:33:23.644Z,11
2022-08-04T03:34:15.539Z,10
2022-08-04T03:35:07.392Z,10
2022-08-04T03:35:59.267Z,10
2022-08-04T03:36:51.138Z,11
2022-08-04T03:37:43.023Z,11
2022-08-04T03:38:34.890Z,11
2022-08-04T03:39:26.865Z,11
2022-08-04T03:40:18.567Z,12
2022-08-04T03:41:10.510Z,12
2022-08-04T03:42:04.153Z,11
2022-08-04T03:42:54.286Z,12
2022-08-04T03:43:57.217Z,12
2022-08-04T03:44:38.015Z,12
2022-08-04T03:45:29.871Z,12
2022-08-04T03:46:21.762Z,11
2022-08-04T03:47:13.693Z,12
2022-08-04T03:48:05.521Z,11
2022-08-04T03:48:57.369Z,12
2022-08-04T03:49:49.267Z,11
2022-08-04T03:50:41.610Z,9
2022-08-04T03:51:36.329Z,10
2022-08-04T03:52:24.902Z,10
2022-08-04T03:53:16.944Z,11
2022-08-04T03:54:08.554Z,9
2022-08-04T03:55:00.518Z,13
2022-08-04T03:55:52.382Z,12
2022-08-04T03:56:44.266Z,11
2022-08-04T03:57:36.128Z,11
2022-08-04T03:58:31.897Z,10
2022-08-04T03:59:19.858Z,11
2022-08-04T04:00:11.775Z,10
2022-08-04T04:01:03.608Z,11
2022-08-04T04:02:01.558Z,10
2022-08-04T04:02:47.431Z,12
2022-08-04T04:03:39.242Z,12
2022-08-04T04:04:31.100Z,10
2022-08-04T04:05:22.984Z,12
2022-08-04T04:06:15.268Z,10
2022-08-04T04:07:06.727Z,10
2022-08-04T04:08:01.721Z,11
2022-08-04T04:08:50.485Z,12
2022-08-04T04:09:57.625Z,11
2022-08-04T04:10:34.211Z,11
2022-08-04T04:11:26.106Z,10
2022-08-04T04:12:17.984Z,11
2022-08-04T04:13:09.831Z,11
2022-08-04T04:14:01.704Z,10
2022-08-04T04:14:53.580Z,12
2022-08-04T04:15:49.834Z,11
2022-08-04T04:16:37.336Z,12
2022-08-04T04:17:29.203Z,14
2022-08-04T04:18:21.057Z,17
2022-08-04T04:19:12.951Z,16
2022-08-04T04:20:04.800Z,13
2022-08-04T04:20:56.710Z,12
2022-08-04T04:21:48.457Z,12
2022-08-04T04:22:40.443Z,11
2022-08-04T04:23:32.319Z,12
2022-08-04T04:24:24.205Z,11
2022-08-04T04:25:16.070Z,12
2022-08-04T04:26:07.960Z,13
2022-08-04T04:26:59.819Z,13
2022-08-04T04:27:51.703Z,12
2022-08-04T04:28:46.403Z,12
2022-08-04T04:29:35.466Z,13
2022-08-04T04:30:27.310Z,11
2022-08-04T04:31:19.137Z,11
2022-08-04T04:32:11.090Z,11
2022-08-04T04:33:02.986Z,11
2022-08-04T04:33:54.852Z,10
2022-08-04T04:34:46.869Z,10
2022-08-04T04:35:38.570Z,12
2022-08-04T04:36:30.486Z,12
2022-08-04T04:37:22.755Z,10
2022-08-04T04:38:14.232Z,11
2022-08-04T04:39:06.168Z,11
2022-08-04T04:39:58.012Z,11
2022-08-04T04:40:49.860Z,11
2022-08-04T04:41:41.763Z,12
2022-08-04T04:42:33.620Z,13
2022-08-04T04:43:51.071Z,10
2022-08-04T04:44:17.407Z,11
2022-08-04T04:45:09.267Z,10
2022-08-04T04:46:01.158Z,11
2022-08-04T04:46:53.036Z,11
2022-08-04T04:48:07.305Z,10
2022-08-04T04:48:36.794Z,11
2022-08-04T04:49:28.624Z,10
2022-08-04T04:50:20.554Z,12
2022-08-04T04:51:12.434Z,10
2022-08-04T04:52:04.319Z,11
2022-08-04T04:52:56.185Z,10
2022-08-04T04:53:48.067Z,12
2022-08-04T04:54:39.945Z,11
2022-08-04T04:55:31.851Z,11
2022-08-04T04:56:23.696Z,11
2022-08-04T04:57:15.598Z,12
2022-08-04T04:58:07.475Z,11
2022-08-04T04:58:59.376Z,12
2022-08-04T04:59:51.237Z,10
2022-08-04T05:00:43.142Z,10
2022-08-04T05:01:34.991Z,12
2022-08-04T05:02:26.886Z,11
2022-08-04T05:03:18.673Z,11
2022-08-04T05:04:10.653Z,11
2022-08-04T05:05:02.525Z,10
2022-08-04T05:05:54.425Z,11
2022-08-04T05:06:46.266Z,12
2022-08-04T05:07:38.195Z,10
2022-08-04T05:08:45.467Z,11
2022-08-04T05:09:21.945Z,10
2022-08-04T05:10:13.809Z,10
2022-08-04T05:11:05.696Z,11
2022-08-04T05:11:57.576Z,11
2022-08-04T05:14:31.883Z,10
2022-08-04T05:14:34.617Z,12
2022-08-04T05:14:40.614Z,10
2022-08-04T05:15:25.661Z,11
2022-08-04T05:16:16.996Z,10
2022-08-04T05:17:08.841Z,12
2022-08-04T05:18:00.774Z,12
2022-08-04T05:18:52.625Z,10
2022-08-04T05:19:44.525Z,11
2022-08-04T05:20:36.399Z,10
2022-08-04T05:21:28.295Z,11
2022-08-04T05:22:20.152Z,12
2022-08-04T05:23:12.043Z,11
2022-08-04T05:24:03.916Z,11
2022-08-04T05:24:55.802Z,12
2022-08-04T05:25:50.181Z,11
2022-08-04T05:26:39.569Z,13
2022-08-04T05:27:31.436Z,12
2022-08-04T05:28:23.327Z,13
2022-08-04T05:29:15.208Z,12
2022-08-04T05:30:07.082Z,11
2022-08-04T05:30:58.846Z,12
2022-08-04T05:31:50.847Z,12
2022-08-04T05:32:42.693Z,12
2022-08-04T05:33:34.589Z,12
2022-08-04T05:34:26.449Z,11
2022-08-04T05:35:50.527Z,11
2022-08-04T05:36:20.426Z,12
2022-08-04T05:37:02.115Z,12
2022-08-04T05:38:01.515Z,13
2022-08-04T05:38:45.864Z,12
2022-08-04T05:39:37.791Z,12
2022-08-04T05:40:29.627Z,11
2022-08-04T05:41:21.502Z,11
2022-08-04T05:42:13.409Z,11
2022-08-04T05:43:05.295Z,11
2022-08-04T05:43:57.160Z,10
2022-08-04T05:44:51.011Z,10
2022-08-04T05:45:40.942Z,11
2022-08-04T05:46:32.803Z,10
2022-08-04T05:47:24.754Z,11
2022-08-04T05:48:16.577Z,11
2022-08-04T05:49:08.493Z,12
2022-08-04T05:50:02.251Z,11
2022-08-04T05:50:52.279Z,10
2022-08-04T05:51:44.127Z,10
2022-08-04T05:52:36.024Z,11
2022-08-04T05:53:27.901Z,10
2022-08-04T05:54:19.794Z,9
2022-08-04T05:55:11.722Z,10
2022-08-04T05:56:03.573Z,10
2022-08-04T05:56:55.454Z,11
2022-08-04T05:57:47.347Z,11
2022-08-04T05:58:39.394Z,11
2022-08-04T05:59:31.138Z,10
2022-08-04T06:00:40.201Z,11
2022-08-04T06:01:14.920Z,11
2022-08-04T06:02:06.902Z,11
2022-08-04T06:02:58.622Z,12
2022-08-04T06:03:50.545Z,11
2022-08-04T06:04:42.456Z,12
2022-08-04T06:05:34.314Z,12
2022-08-04T06:06:26.223Z,12
2022-08-04T06:07:18.081Z,11
2022-08-04T06:08:13.326Z,11
2022-08-04T06:09:01.840Z,11
2022-08-04T06:09:53.769Z,11
2022-08-04T06:10:45.609Z,10
2022-08-04T06:12:02.021Z,12
2022-08-04T06:12:29.315Z,12
2022-08-04T06:13:48.486Z,11
2022-08-04T06:14:13.150Z,10
2022-08-04T06:15:05.043Z,11
2022-08-04T06:15:56.929Z,10
2022-08-04T06:16:51.521Z,10
2022-08-04T06:18:32.770Z,11
2022-08-04T06:20:00.492Z,11
2022-08-04T06:20:01.351Z,10
2022-08-04T06:20:22.127Z,12
2022-08-04T06:21:15.984Z,14
2022-08-04T06:22:00.140Z,13
2022-08-04T06:22:52.019Z,11
2022-08-04T06:23:55.555Z,11
2022-08-04T06:24:35.775Z,10
2022-08-04T06:25:27.685Z,12
2022-08-04T06:26:19.550Z,11
2022-08-04T06:27:11.452Z,12
2022-08-04T06:28:03.326Z,11
2022-08-04T06:28:55.223Z,11
2022-08-04T06:29:51.458Z,10
2022-08-04T06:30:38.905Z,12
2022-08-04T06:32:28.738Z,10
2022-08-04T06:32:31.823Z,11
2022-08-04T06:33:14.684Z,12
2022-08-04T06:34:06.602Z,11
2022-08-04T06:34:58.469Z,10
2022-08-04T06:35:50.395Z,10
2022-08-04T06:36:42.248Z,10
2022-08-04T06:37:43.539Z,10
2022-08-04T06:38:26.047Z,12
2022-08-04T06:39:18.017Z,13
2022-08-04T06:40:29.521Z,10
2022-08-04T06:41:01.769Z,10
2022-08-04T06:42:17.496Z,9
2022-08-04T06:42:45.518Z,9
2022-08-04T06:43:42.839Z,9
2022-08-04T06:44:29.255Z,10
2022-08-04T06:45:21.199Z,11
2022-08-04T06:46:13.091Z,9
2022-08-04T06:47:04.986Z,11
2022-08-04T06:47:56.872Z,10
2022-08-04T06:48:48.710Z,12
2022-08-04T06:49:44.169Z,12
2022-08-04T06:51:25.679Z,13
2022-08-04T06:51:37.066Z,12
2022-08-04T06:52:16.339Z,13
2022-08-04T06:53:08.258Z,12
2022-08-04T06:54:00.171Z,11
2022-08-04T06:54:52.054Z,11
2022-08-04T06:55:43.934Z,11
2022-08-04T06:56:35.847Z,11
2022-08-04T06:57:27.748Z,10
2022-08-04T06:58:19.650Z,11
2022-08-04T06:59:11.535Z,11
2022-08-04T07:00:03.383Z,9
2022-08-04T07:00:55.320Z,11
2022-08-04T07:01:47.318Z,12
2022-08-04T07:02:39.025Z,10
2022-08-04T07:03:31.042Z,12
2022-08-04T07:04:22.923Z,12
2022-08-04T07:05:14.822Z,12
2022-08-04T07:06:13.917Z,11
2022-08-04T07:06:58.651Z,12
2022-08-04T07:07:57.627Z,12
2022-08-04T07:08:42.427Z,11
2022-08-04T07:09:34.309Z,11
2022-08-04T07:10:26.249Z,11
2022-08-04T07:11:18.098Z,12
2022-08-04T07:12:10.005Z,12
2022-08-04T07:13:01.920Z,10
2022-08-04T07:13:53.825Z,11
2022-08-04T07:14:45.704Z,11
2022-08-04T07:15:37.604Z,11
2022-08-04T07:16:30.945Z,11
2022-08-04T07:17:21.684Z,9
2022-08-04T07:18:13.322Z,12
2022-08-04T07:19:10.529Z,11
2022-08-04T07:19:57.090Z,10
2022-08-04T07:20:48.983Z,10
2022-08-04T07:21:40.907Z,11
2022-08-04T07:22:32.814Z,10
2022-08-04T07:23:24.713Z,10
2022-08-04T07:24:16.622Z,9
2022-08-04T07:25:12.602Z,10
2022-08-04T07:26:11.324Z,10
2022-08-04T07:26:52.316Z,10
2022-08-04T07:27:47.666Z,9
2022-08-04T07:28:36.114Z,11
2022-08-04T07:29:28.034Z,11
2022-08-04T07:30:24.629Z,10
2022-08-04T07:31:33.158Z,9
2022-08-04T07:32:03.707Z,11
2022-08-04T07:32:55.626Z,10
2022-08-04T07:33:47.512Z,10
2022-08-04T07:34:39.376Z,9
2022-08-04T07:36:09.391Z,10
2022-08-04T07:36:23.233Z,8
2022-08-04T07:37:15.131Z,11
2022-08-04T07:38:09.709Z,9
2022-08-04T07:38:58.910Z,10
2022-08-04T07:39:50.880Z,10
2022-08-04T07:40:42.748Z,9
2022-08-04T07:41:36.196Z,10
2022-08-04T07:42:26.547Z,9
2022-08-04T07:43:18.450Z,10
2022-08-04T07:44:10.332Z,10
2022-08-04T07:45:02.250Z,9
2022-08-04T07:45:54.158Z,11
2022-08-04T07:46:46.067Z,10
2022-08-04T07:47:37.941Z,11
2022-08-04T07:48:29.850Z,10
2022-08-04T07:49:55.134Z,11
2022-08-04T07:50:13.678Z,13
2022-08-04T07:51:05.675Z,12
2022-08-04T07:51:57.463Z,10
2022-08-04T07:53:03.646Z,10
2022-08-04T07:53:55.496Z,10
2022-08-04T07:54:33.155Z,9
2022-08-04T07:55:25.058Z,9
2022-08-04T07:56:16.960Z,10
2022-08-04T07:57:08.804Z,9
2022-08-04T07:58:00.754Z,9
2022-08-04T07:58:52.677Z,9
2022-08-04T07:59:48.287Z,10
2022-08-04T08:00:36.467Z,9
2022-08-04T08:01:28.388Z,10
2022-08-04T08:02:20.272Z,10
2022-08-04T08:03:12.101Z,10
2022-08-04T08:04:04.086Z,10
2022-08-04T08:04:56.007Z,9
2022-08-04T08:06:16.822Z,12
2022-08-04T08:06:43.141Z,11
2022-08-04T08:07:31.705Z,11
2022-08-04T08:08:23.590Z,9
2022-08-04T08:09:15.501Z,9
2022-08-04T08:10:07.381Z,10
2022-08-04T08:10:59.247Z,9
2022-08-04T08:12:38.720Z,10
2022-08-04T08:12:51.082Z,10
2022-08-04T08:13:34.986Z,10
2022-08-04T08:14:26.909Z,9
2022-08-04T08:15:18.788Z,9
2022-08-04T08:16:10.692Z,10
2022-08-04T08:17:03.005Z,9
2022-08-04T08:17:58.135Z,9
2022-08-04T08:18:49.946Z,11
2022-08-04T08:19:38.322Z,10
2022-08-04T08:20:30.506Z,10
2022-08-04T08:21:22.132Z,12
2022-08-04T08:22:14.012Z,10
2022-08-04T08:23:05.929Z,10
2022-08-04T08:23:57.808Z,10
2022-08-04T08:24:49.726Z,10
2022-08-04T08:25:41.639Z,9
2022-08-04T08:26:33.546Z,10
2022-08-04T08:27:25.428Z,10
2022-08-04T08:28:17.363Z,10
2022-08-04T08:29:09.141Z,11
2022-08-04T08:30:01.194Z,10
2022-08-04T08:30:53.046Z,11
2022-08-04T08:31:57.072Z,10
2022-08-04T08:32:36.855Z,9
2022-08-04T08:33:28.788Z,10
2022-08-04T08:34:27.363Z,10
2022-08-04T08:35:12.673Z,10
2022-08-04T08:36:04.466Z,10
2022-08-04T08:36:56.371Z,9
2022-08-04T08:37:48.276Z,10
2022-08-04T08:38:40.189Z,10
2022-08-04T08:39:32.132Z,9
2022-08-04T08:40:37.910Z,9
2022-08-04T08:41:15.897Z,10
2022-08-04T08:42:07.795Z,9
2022-08-04T08:42:59.714Z,9
2022-08-04T08:44:05.342Z,10
2022-08-04T08:44:43.500Z,9
2022-08-04T08:45:35.432Z,9
2022-08-04T08:46:47.990Z,9
2022-08-04T08:47:19.397Z,8
2022-08-04T08:48:11.126Z,9
2022-08-04T08:49:03.023Z,9
2022-08-04T08:50:00.269Z,9
2022-08-04T08:50:46.841Z,10
2022-08-04T08:51:38.737Z,9
2022-08-04T08:52:55.382Z,9
2022-08-04T08:53:22.546Z,11
2022-08-04T08:54:14.476Z,9
2022-08-04T08:55:06.362Z,11
2022-08-04T08:55:58.212Z,10
2022-08-04T08:56:50.163Z,9
2022-08-04T08:58:00.325Z,10
2022-08-04T08:58:33.985Z,9
2022-08-04T08:59:25.889Z,10
2022-08-04T09:00:17.790Z,10
2022-08-04T09:01:09.734Z,10
2022-08-04T09:02:01.672Z,11
2022-08-04T09:03:04.202Z,8
2022-08-04T09:03:45.418Z,9
2022-08-04T09:04:37.327Z,11
2022-08-04T09:05:29.160Z,11
2022-08-04T09:06:21.135Z,9
2022-08-04T09:07:13.158Z,9
2022-08-04T09:08:04.952Z,9
2022-08-04T09:08:56.852Z,11
2022-08-04T09:09:48.789Z,10
2022-08-04T09:10:40.667Z,10
2022-08-04T09:11:32.595Z,11
2022-08-04T09:12:25.611Z,10
2022-08-04T09:13:16.409Z,11
2022-08-04T09:14:08.369Z,12
2022-08-04T09:15:00.235Z,10
2022-08-04T09:15:54.296Z,11
2022-08-04T09:16:44.056Z,10
2022-08-04T09:17:35.952Z,9
2022-08-04T09:18:27.870Z,9
2022-08-04T09:19:22.912Z,9
2022-08-04T09:20:11.675Z,9
2022-08-04T09:21:03.585Z,9
2022-08-04T09:21:55.487Z,11
2022-08-04T09:22:47.398Z,10
2022-08-04T09:23:39.259Z,9
2022-08-04T09:24:34.828Z,11
2022-08-04T09:25:23.125Z,10
2022-08-04T09:26:15.052Z,9
2022-08-04T09:27:06.951Z,9
2022-08-04T09:28:02.885Z,11
2022-08-04T09:28:53.953Z,11
2022-08-04T09:29:42.664Z,10
2022-08-04T09:30:34.585Z,10
2022-08-04T09:31:26.482Z,11
2022-08-04T09:32:18.397Z,9
2022-08-04T09:33:10.302Z,10
2022-08-04T09:34:02.233Z,10
2022-08-04T09:35:04.643Z,9
2022-08-04T09:35:46.051Z,11
2022-08-04T09:36:37.948Z,10
2022-08-04T09:37:29.870Z,10
2022-08-04T09:38:21.759Z,9
2022-08-04T09:39:13.737Z,9
2022-08-04T09:40:05.580Z,10
2022-08-04T09:40:58.602Z,9
2022-08-04T09:41:52.371Z,9
2022-08-04T09:42:41.343Z,10
2022-08-04T09:43:57.088Z,10
2022-08-04T09:44:49.905Z,11
2022-08-04T09:45:20.455Z,9
2022-08-04T09:46:08.975Z,9
2022-08-04T09:47:00.848Z,9
2022-08-04T09:47:52.789Z,10
2022-08-04T09:48:44.707Z,8
2022-08-04T09:49:36.604Z,10
2022-08-04T09:50:28.511Z,10
2022-08-04T09:51:20.425Z,9
2022-08-04T09:52:12.273Z,9
2022-08-04T09:53:04.251Z,9
2022-08-04T09:53:56.141Z,10
2022-08-04T09:54:48.070Z,10
2022-08-04T09:55:53.074Z,9
2022-08-04T09:56:31.906Z,9
2022-08-04T09:57:23.787Z,10
2022-08-04T09:58:15.716Z,9
2022-08-04T09:59:07.620Z,9
2022-08-04T09:59:59.482Z,9
2022-08-04T10:00:51.453Z,9
2022-08-04T10:01:43.356Z,9
2022-08-04T10:02:35.276Z,9
2022-08-04T10:03:27.230Z,11
2022-08-04T10:04:18.999Z,10
2022-08-04T10:05:10.987Z,10
2022-08-04T10:06:02.868Z,9
2022-08-04T10:06:54.808Z,9
2022-08-04T10:08:15.673Z,10
2022-08-04T10:08:38.621Z,10
2022-08-04T10:09:30.531Z,10
2022-08-04T10:10:22.430Z,10
2022-08-04T10:11:14.333Z,10
2022-08-04T10:12:06.254Z,10
2022-08-04T10:12:58.153Z,8
2022-08-04T10:13:50.070Z,10
2022-08-04T10:14:41.969Z,9
2022-08-04T10:15:33.906Z,9
2022-08-04T10:16:25.802Z,9
2022-08-04T10:17:17.712Z,9
2022-08-04T10:18:09.541Z,10
2022-08-04T10:19:07.715Z,10
2022-08-04T10:19:53.448Z,10
2022-08-04T10:20:49.372Z,9
2022-08-04T10:21:37.253Z,9
2022-08-04T10:22:32.543Z,11
2022-08-04T10:23:21.057Z,10
2022-08-04T10:24:12.938Z,8
2022-08-04T10:25:04.910Z,9
2022-08-04T10:26:05.429Z,9
2022-08-04T10:26:48.718Z,9
2022-08-04T10:27:40.632Z,9
2022-08-04T10:28:32.534Z,10
2022-08-04T10:29:24.450Z,10
2022-08-04T10:30:16.374Z,9
2022-08-04T10:31:08.290Z,8
2022-08-04T10:32:00.176Z,8
2022-08-04T10:32:52.102Z,10
2022-08-04T10:33:43.998Z,9
2022-08-04T10:34:35.940Z,9
2022-08-04T10:35:27.816Z,10
2022-08-04T10:36:19.707Z,9
2022-08-04T10:37:11.634Z,9
2022-08-04T10:38:03.582Z,10
2022-08-04T10:38:55.530Z,10
2022-08-04T10:39:47.460Z,9
2022-08-04T10:40:39.215Z,9
2022-08-04T10:41:31.219Z,11
2022-08-04T10:42:23.124Z,9
2022-08-04T10:43:22.031Z,10
2022-08-04T10:44:06.943Z,11
2022-08-04T10:44:58.881Z,9
2022-08-04T10:45:50.794Z,9
2022-08-04T10:46:42.716Z,8
2022-08-04T10:47:34.625Z,9
2022-08-04T10:48:34.676Z,10
2022-08-04T10:49:18.428Z,10
2022-08-04T10:50:10.369Z,8
2022-08-04T10:51:02.277Z,8
2022-08-04T10:51:57.752Z,9
2022-08-04T10:52:46.095Z,9
2022-08-04T10:53:38.010Z,8
2022-08-04T10:54:29.910Z,9
2022-08-04T10:55:21.834Z,9
2022-08-04T10:56:13.738Z,9
2022-08-04T10:57:05.650Z,8
2022-08-04T10:57:57.558Z,9
2022-08-04T10:58:49.442Z,9
2022-08-04T10:59:41.395Z,10
2022-08-04T11:00:33.303Z,9
2022-08-04T11:01:59.739Z,9
2022-08-04T11:02:17.135Z,7
2022-08-04T11:03:09.240Z,8
2022-08-04T11:04:00.957Z,8
2022-08-04T11:04:52.858Z,8
2022-08-04T11:05:44.793Z,9
2022-08-04T11:06:36.702Z,9
2022-08-04T11:07:28.643Z,9
2022-08-04T11:08:21.664Z,9
2022-08-04T11:09:14.952Z,9
2022-08-04T11:10:04.289Z,9
2022-08-04T11:10:56.210Z,9
2022-08-04T11:12:00.232Z,8
2022-08-04T11:12:40.094Z,10
2022-08-04T11:13:32.002Z,9
2022-08-04T11:14:23.934Z,11
2022-08-04T11:15:15.839Z,9
2022-08-04T11:16:07.772Z,9
2022-08-04T11:16:59.614Z,10
2022-08-04T11:17:51.607Z,10
2022-08-04T11:18:43.508Z,9
2022-08-04T11:19:45.270Z,9
2022-08-04T11:20:35.560Z,11
2022-08-04T11:21:19.198Z,9
2022-08-04T11:22:11.183Z,10
2022-08-04T11:23:03.103Z,9
2022-08-04T11:23:54.994Z,8
2022-08-04T11:24:46.943Z,9
2022-08-04T11:25:38.845Z,8
2022-08-04T11:26:30.775Z,8
2022-08-04T11:27:22.822Z,8
2022-08-04T11:28:14.598Z,8
2022-08-04T11:29:06.498Z,9
2022-08-04T11:29:58.433Z,10
2022-08-04T11:30:50.329Z,8
2022-08-04T11:31:42.269Z,7
2022-08-04T11:32:34.169Z,8
2022-08-04T11:33:26.094Z,9
2022-08-04T11:34:17.987Z,8
2022-08-04T11:35:09.941Z,9
2022-08-04T11:36:01.835Z,8
2022-08-04T11:36:53.774Z,8
2022-08-04T11:37:45.676Z,7
2022-08-04T11:38:37.599Z,8
2022-08-04T11:39:29.611Z,7
2022-08-04T11:40:21.424Z,9
2022-08-04T11:41:13.314Z,9
2022-08-04T11:42:05.254Z,10
2022-08-04T11:42:57.158Z,8
2022-08-04T11:44:01.329Z,9
2022-08-04T11:44:40.988Z,9
2022-08-04T11:45:32.875Z,7
2022-08-04T11:46:24.814Z,9
2022-08-04T11:47:16.752Z,8
2022-08-04T11:48:08.638Z,9
2022-08-04T11:49:00.588Z,8
2022-08-04T11:49:57.153Z,8
2022-08-04T11:50:44.404Z,7
2022-08-04T11:51:36.320Z,7
2022-08-04T11:52:28.234Z,9
2022-08-04T11:53:20.076Z,8
2022-08-04T11:54:12.067Z,8
2022-08-04T11:55:03.985Z,9
2022-08-04T11:56:08.240Z,7
2022-08-04T11:56:47.815Z,8
2022-08-04T11:57:39.682Z,8
2022-08-04T11:58:31.638Z,7
2022-08-04T11:59:23.554Z,8
2022-08-04T12:00:15.469Z,8
2022-08-04T12:01:07.391Z,8
2022-08-04T12:01:59.340Z,7
2022-08-04T12:02:51.289Z,7
2022-08-04T12:03:43.126Z,8
2022-08-04T12:04:35.047Z,8
2022-08-04T12:05:37.129Z,8
2022-08-04T12:06:18.923Z,8
2022-08-04T12:07:31.107Z,8
2022-08-04T12:08:02.709Z,8
2022-08-04T12:08:54.605Z,7
2022-08-04T12:09:46.554Z,9
2022-08-04T12:10:42.494Z,10
2022-08-04T12:11:30.366Z,8
2022-08-04T12:12:22.253Z,7
2022-08-04T12:13:14.191Z,15
2022-08-04T12:14:06.087Z,16
2022-08-04T12:14:58.018Z,12
2022-08-04T12:15:49.810Z,11
2022-08-04T12:16:41.840Z,12
2022-08-04T12:17:37.060Z,16
2022-08-04T12:18:25.668Z,24
2022-08-04T12:19:17.558Z,21
2022-08-04T12:20:31.573Z,23
2022-08-04T12:21:01.382Z,22
2022-08-04T12:21:55.974Z,20
2022-08-04T12:22:45.222Z,22
2022-08-04T12:23:37.147Z,22
2022-08-04T12:24:29.037Z,22
2022-08-04T12:25:20.973Z,22
2022-08-04T12:26:12.801Z,21
2022-08-04T12:27:04.798Z,21
2022-08-04T12:27:56.764Z,21
2022-08-04T12:29:08.962Z,21